SHT3G EGCC-EGLL
Flight info
| Callsign | SHT3G |
|---|---|
| Flight time | 0h 38m |
| Altitude | 19000 |
| Route | LISTO2S LISTO L612 HON HON2H |
| Aircraft | A320/M-SDE3FGIJ1KRWXY/SB1 |
Departure
| Time | 2026-05-04 13:32 |
|---|---|
| Airport | Manchester Airport (EGCC) |
Arrival
| Time | 2026-05-04 14:10 |
|---|---|
| Airport | London Heathrow Airport (EGLL) |
| Time | Latitude | Longitude | Altitude | Speed | Heading |
|---|---|---|---|---|---|
| 2026-05-04 13:15 | 53.36891 | -2.28788 | 247 ft | 0 kts | 134° |
| 2026-05-04 13:21 | 53.36906 | -2.28814 | 247 ft | 4 kts | 135° |
| 2026-05-04 13:21 | 53.36920 | -2.28836 | 247 ft | 4 kts | 175° |
| 2026-05-04 13:22 | 53.36938 | -2.28822 | 247 ft | 4 kts | 225° |
| 2026-05-04 13:22 | 53.36953 | -2.28796 | 247 ft | 1 kts | 225° |
| 2026-05-04 13:23 | 53.36952 | -2.28798 | 247 ft | 1 kts | 225° |
| 2026-05-04 13:23 | 53.36943 | -2.28814 | 247 ft | 3 kts | 225° |
| 2026-05-04 13:24 | 53.36922 | -2.28849 | 247 ft | 5 kts | 226° |
| 2026-05-04 13:24 | 53.36876 | -2.28927 | 247 ft | 16 kts | 225° |
| 2026-05-04 13:24 | 53.36770 | -2.29039 | 247 ft | 17 kts | 192° |
| 2026-05-04 13:25 | 53.36639 | -2.28892 | 247 ft | 1 kts | 159° |
| 2026-05-04 13:26 | 53.36631 | -2.28886 | 247 ft | 2 kts | 159° |
| 2026-05-04 13:27 | 53.36612 | -2.28867 | 247 ft | 4 kts | 135° |
| 2026-05-04 13:27 | 53.36590 | -2.28814 | 247 ft | 9 kts | 118° |
| 2026-05-04 13:27 | 53.36526 | -2.28666 | 247 ft | 21 kts | 135° |
| 2026-05-04 13:27 | 53.36442 | -2.28525 | 247 ft | 16 kts | 134° |
| 2026-05-04 13:28 | 53.36321 | -2.28430 | 247 ft | 23 kts | 142° |
| 2026-05-04 13:28 | 53.36200 | -2.28230 | 247 ft | 21 kts | 134° |
| 2026-05-04 13:28 | 53.36117 | -2.28088 | 247 ft | 20 kts | 136° |
| 2026-05-04 13:28 | 53.36018 | -2.27925 | 247 ft | 21 kts | 137° |
| 2026-05-04 13:29 | 53.35881 | -2.27852 | 247 ft | 21 kts | 186° |
| 2026-05-04 13:29 | 53.35711 | -2.27881 | 247 ft | 28 kts | 185° |
| 2026-05-04 13:29 | 53.35561 | -2.28033 | 240 ft | 31 kts | 229° |
| 2026-05-04 13:29 | 53.35379 | -2.28170 | 238 ft | 29 kts | 188° |
| 2026-05-04 13:30 | 53.35199 | -2.28366 | 233 ft | 33 kts | 231° |
| 2026-05-04 13:30 | 53.35070 | -2.28635 | 233 ft | 24 kts | 231° |
| 2026-05-04 13:30 | 53.34974 | -2.28812 | 229 ft | 10 kts | 221° |
| 2026-05-04 13:30 | 53.34899 | -2.28937 | 225 ft | 21 kts | 227° |
| 2026-05-04 13:31 | 53.34766 | -2.29067 | 217 ft | 19 kts | 174° |
| 2026-05-04 13:31 | 53.34687 | -2.29008 | 223 ft | 19 kts | 132° |
| 2026-05-04 13:31 | 53.34715 | -2.28861 | 225 ft | 15 kts | 53° |
| 2026-05-04 13:31 | 53.35035 | -2.28192 | 237 ft | 98 kts | 51° |
| 2026-05-04 13:32 | 53.35369 | -2.27499 | 258 ft | 131 kts | 51° |
| 2026-05-04 13:32 | 53.36036 | -2.26124 | 300 ft | 170 kts | 50° |
| 2026-05-04 13:32 | 53.36742 | -2.24703 | 1152 ft | 151 kts | 54° |
| 2026-05-04 13:32 | 53.36811 | -2.24544 | 1231 ft | 151 kts | 56° |
| 2026-05-04 13:34 | 53.36937 | -2.24229 | 1393 ft | 148 kts | 59° |
| 2026-05-04 13:34 | 53.37446 | -2.22715 | 1869 ft | 159 kts | 71° |
| 2026-05-04 13:34 | 53.37547 | -2.20760 | 2184 ft | 182 kts | 102° |
| 2026-05-04 13:34 | 53.36906 | -2.18834 | 2497 ft | 204 kts | 139° |
| 2026-05-04 13:35 | 53.35624 | -2.17528 | 2796 ft | 228 kts | 152° |
| 2026-05-04 13:35 | 53.32365 | -2.15942 | 3910 ft | 261 kts | 184° |
| 2026-05-04 13:35 | 53.30574 | -2.16336 | 4778 ft | 266 kts | 191° |
| 2026-05-04 13:36 | 53.28719 | -2.16934 | 5665 ft | 270 kts | 191° |
| 2026-05-04 13:36 | 53.26882 | -2.17507 | 6544 ft | 273 kts | 190° |
| 2026-05-04 13:36 | 53.24969 | -2.18017 | 7390 ft | 277 kts | 188° |
| 2026-05-04 13:36 | 53.23073 | -2.18439 | 8198 ft | 281 kts | 187° |
| 2026-05-04 13:37 | 53.21094 | -2.18818 | 9048 ft | 284 kts | 187° |
| 2026-05-04 13:37 | 53.19141 | -2.19153 | 9868 ft | 287 kts | 186° |
| 2026-05-04 13:37 | 53.17136 | -2.19474 | 10597 ft | 291 kts | 186° |
| 2026-05-04 13:37 | 53.15104 | -2.19752 | 11328 ft | 295 kts | 181° |
| 2026-05-04 13:38 | 53.13091 | -2.19085 | 12032 ft | 300 kts | 159° |
| 2026-05-04 13:38 | 53.11153 | -2.17746 | 12795 ft | 302 kts | 158° |
| 2026-05-04 13:38 | 53.09205 | -2.16384 | 13536 ft | 305 kts | 158° |
| 2026-05-04 13:38 | 53.07242 | -2.15011 | 14223 ft | 308 kts | 158° |
| 2026-05-04 13:39 | 53.05260 | -2.13630 | 14871 ft | 310 kts | 158° |
| 2026-05-04 13:39 | 53.03257 | -2.12239 | 15524 ft | 313 kts | 158° |
| 2026-05-04 13:39 | 53.01241 | -2.10845 | 16176 ft | 316 kts | 158° |
| 2026-05-04 13:39 | 52.99204 | -2.09442 | 16823 ft | 318 kts | 158° |
| 2026-05-04 13:40 | 52.97152 | -2.08031 | 17486 ft | 320 kts | 158° |
| 2026-05-04 13:40 | 52.95085 | -2.06611 | 18114 ft | 323 kts | 158° |
| 2026-05-04 13:40 | 52.92997 | -2.05178 | 18687 ft | 326 kts | 158° |
| 2026-05-04 13:40 | 52.90890 | -2.03735 | 18991 ft | 328 kts | 158° |
| 2026-05-04 13:41 | 52.88782 | -2.02294 | 19060 ft | 328 kts | 158° |
| 2026-05-04 13:41 | 52.86669 | -2.00846 | 19078 ft | 328 kts | 158° |
| 2026-05-04 13:41 | 52.84559 | -1.99400 | 19079 ft | 328 kts | 158° |
| 2026-05-04 13:42 | 52.80340 | -1.96523 | 19076 ft | 328 kts | 159° |
| 2026-05-04 13:42 | 52.78227 | -1.95086 | 19076 ft | 328 kts | 159° |
| 2026-05-04 13:42 | 52.76118 | -1.93651 | 19077 ft | 328 kts | 159° |
| 2026-05-04 13:42 | 52.74011 | -1.92217 | 19074 ft | 328 kts | 158° |
| 2026-05-04 13:43 | 52.71905 | -1.90783 | 19073 ft | 327 kts | 158° |
| 2026-05-04 13:43 | 52.69806 | -1.89356 | 19076 ft | 326 kts | 158° |
| 2026-05-04 13:43 | 52.67709 | -1.87929 | 19079 ft | 326 kts | 159° |
| 2026-05-04 13:43 | 52.65609 | -1.86505 | 19089 ft | 326 kts | 159° |
| 2026-05-04 13:44 | 52.63507 | -1.85084 | 19092 ft | 326 kts | 159° |
| 2026-05-04 13:44 | 52.61405 | -1.83662 | 19094 ft | 326 kts | 159° |
| 2026-05-04 13:44 | 52.59304 | -1.82243 | 19096 ft | 327 kts | 159° |
| 2026-05-04 13:44 | 52.57203 | -1.80823 | 19098 ft | 327 kts | 158° |
| 2026-05-04 13:45 | 52.55126 | -1.79422 | 19102 ft | 327 kts | 159° |
| 2026-05-04 13:45 | 52.53021 | -1.78004 | 19103 ft | 327 kts | 159° |
| 2026-05-04 13:45 | 52.50915 | -1.76586 | 19104 ft | 327 kts | 159° |
| 2026-05-04 13:45 | 52.48812 | -1.75167 | 19107 ft | 327 kts | 158° |
| 2026-05-04 13:46 | 52.46707 | -1.73753 | 19105 ft | 327 kts | 158° |
| 2026-05-04 13:46 | 52.44606 | -1.72346 | 19106 ft | 327 kts | 158° |
| 2026-05-04 13:46 | 52.42504 | -1.70936 | 19105 ft | 326 kts | 158° |
| 2026-05-04 13:46 | 52.40404 | -1.69528 | 19086 ft | 325 kts | 158° |
| 2026-05-04 13:47 | 52.38315 | -1.68129 | 19084 ft | 325 kts | 158° |
| 2026-05-04 13:47 | 52.36232 | -1.66741 | 19072 ft | 319 kts | 159° |
| 2026-05-04 13:47 | 52.34212 | -1.65394 | 18962 ft | 309 kts | 159° |
| 2026-05-04 13:47 | 52.32239 | -1.64082 | 18717 ft | 304 kts | 159° |
| 2026-05-04 13:48 | 52.30283 | -1.62785 | 18409 ft | 303 kts | 159° |
| 2026-05-04 13:48 | 52.28335 | -1.61485 | 18072 ft | 302 kts | 156° |
| 2026-05-04 13:48 | 52.26601 | -1.59579 | 17573 ft | 306 kts | 135° |
| 2026-05-04 13:48 | 52.25364 | -1.56721 | 17107 ft | 310 kts | 122° |
| 2026-05-04 13:49 | 52.24258 | -1.53708 | 16741 ft | 309 kts | 122° |
| 2026-05-04 13:49 | 52.23156 | -1.50706 | 16406 ft | 307 kts | 122° |
| 2026-05-04 13:49 | 52.22060 | -1.47738 | 16068 ft | 305 kts | 125° |
| 2026-05-04 13:49 | 52.20652 | -1.45201 | 15713 ft | 301 kts | 140° |
| 2026-05-04 13:50 | 52.19068 | -1.42964 | 15352 ft | 301 kts | 141° |
| 2026-05-04 13:50 | 52.17481 | -1.40751 | 15013 ft | 300 kts | 141° |
| 2026-05-04 13:50 | 52.15894 | -1.38550 | 14686 ft | 299 kts | 141° |
| 2026-05-04 13:50 | 52.14316 | -1.36360 | 14352 ft | 298 kts | 141° |
| 2026-05-04 13:51 | 52.12739 | -1.34167 | 13998 ft | 299 kts | 141° |
| 2026-05-04 13:51 | 52.11152 | -1.31960 | 13556 ft | 301 kts | 141° |
| 2026-05-04 13:51 | 52.09558 | -1.29742 | 13180 ft | 301 kts | 141° |
| 2026-05-04 13:51 | 52.07976 | -1.27539 | 12831 ft | 299 kts | 141° |
| 2026-05-04 13:52 | 52.04824 | -1.23172 | 12150 ft | 297 kts | 141° |
| 2026-05-04 13:52 | 52.03256 | -1.21005 | 11806 ft | 295 kts | 141° |
| 2026-05-04 13:52 | 52.01690 | -1.18844 | 11458 ft | 295 kts | 141° |
| 2026-05-04 13:53 | 52.00132 | -1.16691 | 11112 ft | 294 kts | 141° |
| 2026-05-04 13:53 | 51.98581 | -1.14547 | 10786 ft | 293 kts | 142° |
| 2026-05-04 13:53 | 51.97028 | -1.12398 | 10477 ft | 292 kts | 142° |
| 2026-05-04 13:54 | 51.93950 | -1.08145 | 10046 ft | 290 kts | 142° |
| 2026-05-04 13:54 | 51.92409 | -1.06023 | 10049 ft | 292 kts | 142° |
| 2026-05-04 13:54 | 51.89326 | -1.01787 | 10049 ft | 292 kts | 142° |
| 2026-05-04 13:55 | 51.87756 | -0.99629 | 10048 ft | 293 kts | 142° |
| 2026-05-04 13:55 | 51.84915 | -0.95009 | 10043 ft | 295 kts | 120° |
| 2026-05-04 13:55 | 51.83988 | -0.92035 | 10036 ft | 297 kts | 118° |
| 2026-05-04 13:56 | 51.83077 | -0.89043 | 10037 ft | 296 kts | 117° |
| 2026-05-04 13:56 | 51.82169 | -0.86051 | 10039 ft | 297 kts | 117° |
| 2026-05-04 13:56 | 51.80341 | -0.80056 | 9968 ft | 296 kts | 118° |
| 2026-05-04 13:57 | 51.79434 | -0.77100 | 9712 ft | 292 kts | 118° |
| 2026-05-04 13:57 | 51.78534 | -0.74173 | 9450 ft | 290 kts | 118° |
| 2026-05-04 13:58 | 51.75864 | -0.65488 | 9039 ft | 288 kts | 118° |
| 2026-05-04 13:58 | 51.74028 | -0.59777 | 9038 ft | 278 kts | 121° |
| 2026-05-04 13:58 | 51.73097 | -0.57078 | 9062 ft | 264 kts | 121° |
| 2026-05-04 13:59 | 51.72232 | -0.54580 | 9066 ft | 256 kts | 121° |
| 2026-05-04 13:59 | 51.71369 | -0.52076 | 9071 ft | 255 kts | 121° |
| 2026-05-04 13:59 | 51.69649 | -0.47084 | 9078 ft | 255 kts | 121° |
| 2026-05-04 14:00 | 51.68790 | -0.44592 | 9083 ft | 254 kts | 121° |
| 2026-05-04 14:00 | 51.67064 | -0.39602 | 9084 ft | 255 kts | 121° |
| 2026-05-04 14:00 | 51.66202 | -0.37116 | 9081 ft | 255 kts | 121° |
| 2026-05-04 14:01 | 51.65340 | -0.34621 | 9081 ft | 255 kts | 121° |
| 2026-05-04 14:01 | 51.64482 | -0.32138 | 8893 ft | 253 kts | 121° |
| 2026-05-04 14:01 | 51.62773 | -0.27197 | 8328 ft | 251 kts | 121° |
| 2026-05-04 14:02 | 51.61924 | -0.24750 | 8047 ft | 250 kts | 121° |
| 2026-05-04 14:02 | 51.61076 | -0.22318 | 7767 ft | 249 kts | 121° |
| 2026-05-04 14:02 | 51.60229 | -0.19898 | 7481 ft | 248 kts | 121° |
| 2026-05-04 14:02 | 51.59384 | -0.17482 | 7195 ft | 247 kts | 121° |
| 2026-05-04 14:03 | 51.58548 | -0.15070 | 6917 ft | 247 kts | 121° |
| 2026-05-04 14:03 | 51.57712 | -0.12675 | 6689 ft | 246 kts | 121° |
| 2026-05-04 14:03 | 51.56874 | -0.10288 | 6432 ft | 244 kts | 121° |
| 2026-05-04 14:03 | 51.56030 | -0.07932 | 6171 ft | 241 kts | 123° |
| 2026-05-04 14:04 | 51.53454 | -0.04957 | 5805 ft | 224 kts | 158° |
| 2026-05-04 14:04 | 51.51990 | -0.04339 | 5629 ft | 215 kts | 183° |
| 2026-05-04 14:04 | 51.50561 | -0.04887 | 5330 ft | 212 kts | 208° |
| 2026-05-04 14:05 | 51.48929 | -0.08555 | 4817 ft | 206 kts | 258° |
| 2026-05-04 14:05 | 51.48638 | -0.10752 | 4713 ft | 196 kts | 258° |
| 2026-05-04 14:05 | 51.48357 | -0.12820 | 4590 ft | 184 kts | 258° |
| 2026-05-04 14:06 | 51.48091 | -0.14770 | 4444 ft | 174 kts | 258° |
| 2026-05-04 14:06 | 51.47906 | -0.16692 | 4061 ft | 180 kts | 265° |
| 2026-05-04 14:06 | 51.47836 | -0.18762 | 3596 ft | 189 kts | 269° |
| 2026-05-04 14:06 | 51.47813 | -0.20862 | 3241 ft | 191 kts | 271° |
| 2026-05-04 14:07 | 51.47805 | -0.23054 | 2735 ft | 198 kts | 271° |
| 2026-05-04 14:07 | 51.47801 | -0.25262 | 2381 ft | 196 kts | 271° |
| 2026-05-04 14:07 | 51.47798 | -0.27430 | 2101 ft | 192 kts | 271° |
| 2026-05-04 14:07 | 51.47795 | -0.29525 | 1838 ft | 183 kts | 272° |
| 2026-05-04 14:08 | 51.47791 | -0.31520 | 1623 ft | 182 kts | 272° |
| 2026-05-04 14:08 | 51.47788 | -0.33534 | 1350 ft | 171 kts | 271° |
| 2026-05-04 14:08 | 51.47784 | -0.35330 | 1122 ft | 154 kts | 271° |
| 2026-05-04 14:08 | 51.47780 | -0.37009 | 917 ft | 148 kts | 271° |
| 2026-05-04 14:09 | 51.47773 | -0.40242 | 547 ft | 143 kts | 272° |
| 2026-05-04 14:09 | 51.47768 | -0.41803 | 336 ft | 141 kts | 271° |
| 2026-05-04 14:10 | 51.47766 | -0.44848 | 89 ft | 112 kts | 271° |
| 2026-05-04 14:10 | 51.47763 | -0.45658 | 85 ft | 52 kts | 268° |
| 2026-05-04 14:10 | 51.47674 | -0.45935 | 88 ft | 15 kts | 222° |
| 2026-05-04 14:10 | 51.47598 | -0.46070 | 87 ft | 17 kts | 251° |
| 2026-05-04 14:11 | 51.47595 | -0.46272 | 88 ft | 19 kts | 270° |
| 2026-05-04 14:11 | 51.47592 | -0.46764 | 87 ft | 25 kts | 268° |
| 2026-05-04 14:11 | 51.47582 | -0.47050 | 88 ft | 27 kts | 270° |
| 2026-05-04 14:12 | 51.47582 | -0.47363 | 86 ft | 29 kts | 269° |
| 2026-05-04 14:12 | 51.47582 | -0.47694 | 90 ft | 30 kts | 270° |
| 2026-05-04 14:12 | 51.47579 | -0.48297 | 90 ft | 21 kts | 269° |
| 2026-05-04 14:13 | 51.47550 | -0.48471 | 86 ft | 13 kts | 198° |
| 2026-05-04 14:13 | 51.47486 | -0.48569 | 89 ft | 15 kts | 273° |
| 2026-05-04 14:13 | 51.47476 | -0.48741 | 90 ft | 16 kts | 226° |
| 2026-05-04 14:13 | 51.47398 | -0.48758 | 86 ft | 0 kts | 179° |
| 2026-05-04 14:14 | 51.47400 | -0.48757 | 86 ft | 0 kts | 180° |